createdAt,value
2017-09-09T00:00:16.999Z,2
2017-09-09T00:01:19.388Z,2
2017-09-09T00:02:21.780Z,2.1
2017-09-09T00:03:24.179Z,2
2017-09-09T00:04:26.570Z,2
2017-09-09T00:05:28.964Z,2
2017-09-09T00:06:31.360Z,2.1
2017-09-09T00:07:33.758Z,2
2017-09-09T00:08:36.152Z,2
2017-09-09T00:09:38.542Z,2
2017-09-09T00:10:40.943Z,2
2017-09-09T00:11:43.669Z,1.9
2017-09-09T00:12:46.065Z,2
2017-09-09T00:13:48.456Z,2.1
2017-09-09T00:14:50.852Z,2
2017-09-09T00:15:53.250Z,2.1
2017-09-09T00:16:55.645Z,2
2017-09-09T00:17:58.042Z,2.1
2017-09-09T00:19:00.440Z,2.1
2017-09-09T00:20:03.186Z,2
2017-09-09T00:21:05.576Z,2
2017-09-09T00:22:07.972Z,2
2017-09-09T00:23:10.366Z,2
2017-09-09T00:24:13.092Z,2
2017-09-09T00:25:15.488Z,2.1
2017-09-09T00:26:17.886Z,2
2017-09-09T00:27:20.279Z,2
2017-09-09T00:28:22.671Z,2.1
2017-09-09T00:29:25.408Z,2.1
2017-09-09T00:30:27.808Z,2.1
2017-09-09T00:31:30.209Z,2
2017-09-09T00:32:32.603Z,2.1
2017-09-09T00:33:34.990Z,1.9
2017-09-09T00:34:37.391Z,2
2017-09-09T00:35:39.793Z,2.1
2017-09-09T00:36:42.195Z,2
2017-09-09T00:37:44.583Z,2
2017-09-09T00:38:46.984Z,2
2017-09-09T00:39:49.375Z,1.9
2017-09-09T00:40:51.765Z,2.1
2017-09-09T00:41:54.502Z,2
2017-09-09T00:42:56.889Z,2
2017-09-09T00:43:59.283Z,2
2017-09-09T00:45:01.682Z,1.8
2017-09-09T00:46:04.067Z,2
2017-09-09T00:47:06.465Z,2.1
2017-09-09T00:48:08.864Z,2
2017-09-09T00:49:11.599Z,2
2017-09-09T00:50:14.000Z,2
2017-09-09T00:51:16.392Z,2
2017-09-09T00:52:19.132Z,2
2017-09-09T00:53:21.524Z,2
2017-09-09T00:54:23.923Z,2
2017-09-09T00:55:26.311Z,2
2017-09-09T00:56:29.069Z,2
2017-09-09T00:57:31.459Z,2.1
2017-09-09T00:58:33.850Z,2
2017-09-09T00:59:36.245Z,2
2017-09-09T01:00:38.640Z,2
2017-09-09T01:01:41.035Z,2.1
2017-09-09T01:02:43.434Z,2.1
2017-09-09T01:03:46.168Z,2
2017-09-09T01:04:48.557Z,2
2017-09-09T01:05:50.950Z,2
2017-09-09T01:06:53.340Z,2
2017-09-09T01:07:55.734Z,2
2017-09-09T01:08:58.126Z,2
2017-09-09T01:10:00.526Z,2
2017-09-09T01:11:03.252Z,2
2017-09-09T01:12:05.655Z,2
2017-09-09T01:13:08.048Z,2.1
2017-09-09T01:14:10.444Z,2
2017-09-09T01:15:12.841Z,2
2017-09-09T01:16:15.235Z,2
2017-09-09T01:17:17.629Z,2
2017-09-09T01:18:20.028Z,2
2017-09-09T01:19:22.413Z,2
2017-09-09T01:20:25.144Z,2.1
2017-09-09T01:21:27.885Z,2.1
2017-09-09T01:22:30.618Z,1.9
2017-09-09T01:23:33.012Z,2
2017-09-09T01:24:35.403Z,2.1
2017-09-09T01:25:37.799Z,1.9
2017-09-09T01:26:40.206Z,2
2017-09-09T01:27:42.604Z,2
2017-09-09T01:28:44.992Z,2
2017-09-09T01:29:47.390Z,2
2017-09-09T01:30:49.779Z,2
2017-09-09T01:31:52.175Z,2.1
2017-09-09T01:32:54.569Z,1.8
2017-09-09T01:33:56.967Z,2
2017-09-09T01:34:59.700Z,1.9
2017-09-09T01:36:02.087Z,1.9
2017-09-09T01:37:04.489Z,2
2017-09-09T01:38:06.882Z,2
2017-09-09T01:39:09.277Z,1.9
2017-09-09T01:40:11.671Z,2
2017-09-09T01:41:14.068Z,1.9
2017-09-09T01:42:16.457Z,2
2017-09-09T01:43:18.863Z,2
2017-09-09T01:44:21.250Z,2.1
2017-09-09T01:45:23.635Z,1.9
2017-09-09T01:46:26.033Z,1.9
2017-09-09T01:47:28.423Z,2.1
2017-09-09T01:48:30.817Z,1.9
2017-09-09T01:49:33.214Z,2.1
2017-09-09T01:50:35.608Z,1.9
2017-09-09T01:51:38.001Z,2
2017-09-09T01:52:40.400Z,2
2017-09-09T01:53:42.799Z,2
2017-09-09T01:54:45.195Z,2
2017-09-09T01:55:47.594Z,2
2017-09-09T01:56:49.983Z,2
2017-09-09T01:57:52.380Z,2
2017-09-09T01:58:54.774Z,1.9
2017-09-09T01:59:57.159Z,1.9
2017-09-09T02:00:59.555Z,2.1
2017-09-09T02:02:01.949Z,2
2017-09-09T02:03:04.342Z,2
2017-09-09T02:04:06.737Z,2
2017-09-09T02:05:09.130Z,2.1
2017-09-09T02:06:11.525Z,2
2017-09-09T02:07:13.924Z,2
2017-09-09T02:08:16.323Z,1.9
2017-09-09T02:09:18.709Z,2
2017-09-09T02:10:21.104Z,2
2017-09-09T02:11:23.496Z,2
2017-09-09T02:12:25.890Z,2
2017-09-09T02:13:28.283Z,1.9
2017-09-09T02:14:30.675Z,2.1
2017-09-09T02:15:33.066Z,2
2017-09-09T02:16:35.463Z,2
2017-09-09T02:17:37.853Z,2
2017-09-09T02:18:40.256Z,2
2017-09-09T02:19:42.648Z,2
2017-09-09T02:20:45.729Z,1.9
2017-09-09T02:21:48.125Z,2
2017-09-09T02:22:50.520Z,2
2017-09-09T02:23:52.915Z,1.9
2017-09-09T02:24:55.310Z,1.9
2017-09-09T02:25:57.695Z,2.1
2017-09-09T02:27:00.090Z,2
2017-09-09T02:28:02.833Z,2
2017-09-09T02:29:05.225Z,2
2017-09-09T02:30:07.616Z,2
2017-09-09T02:31:10.013Z,2
2017-09-09T02:32:12.409Z,2
2017-09-09T02:33:14.799Z,2.1
2017-09-09T02:34:17.190Z,2
2017-09-09T02:35:19.586Z,2
2017-09-09T02:36:21.974Z,2
2017-09-09T02:37:24.368Z,2
2017-09-09T02:38:26.763Z,1.7
2017-09-09T02:39:29.155Z,2
2017-09-09T02:40:31.551Z,2.1
2017-09-09T02:41:33.949Z,2
2017-09-09T02:42:36.337Z,2
2017-09-09T02:43:38.733Z,2
2017-09-09T02:44:41.128Z,2
2017-09-09T02:45:43.524Z,2
2017-09-09T02:46:45.916Z,1.8
2017-09-09T02:47:48.311Z,1.8
2017-09-09T02:48:50.709Z,2
2017-09-09T02:49:53.107Z,2
2017-09-09T02:50:55.509Z,2
2017-09-09T02:51:57.898Z,2
2017-09-09T02:53:00.293Z,2
2017-09-09T02:54:02.694Z,2
2017-09-09T02:55:05.087Z,2
2017-09-09T02:56:07.483Z,1.9
2017-09-09T02:57:09.877Z,2
2017-09-09T02:58:12.266Z,2
2017-09-09T02:59:14.669Z,2.1
2017-09-09T03:00:17.065Z,1.7
2017-09-09T03:01:19.452Z,2
2017-09-09T03:02:22.208Z,2
2017-09-09T03:03:24.606Z,1.9
2017-09-09T03:04:26.996Z,2
2017-09-09T03:05:29.384Z,2
2017-09-09T03:06:31.787Z,2
2017-09-09T03:07:34.176Z,2
2017-09-09T03:08:36.572Z,2
2017-09-09T03:09:38.970Z,2
2017-09-09T03:10:41.363Z,2
2017-09-09T03:11:43.758Z,2
2017-09-09T03:12:46.158Z,2
2017-09-09T03:13:48.545Z,1.9
2017-09-09T03:14:50.935Z,2
2017-09-09T03:15:53.329Z,2.1
2017-09-09T03:16:55.725Z,1.9
2017-09-09T03:17:58.130Z,2
2017-09-09T03:19:00.529Z,2.1
2017-09-09T03:20:02.915Z,2
2017-09-09T03:21:05.671Z,2
2017-09-09T03:22:08.073Z,2.1
2017-09-09T03:23:10.466Z,2
2017-09-09T03:24:12.865Z,1.9
2017-09-09T03:25:15.586Z,1.9
2017-09-09T03:26:17.980Z,2.1
2017-09-09T03:27:20.385Z,2.1
2017-09-09T03:28:22.776Z,2.1
2017-09-09T03:29:25.165Z,2
2017-09-09T03:30:27.558Z,2
2017-09-09T03:31:29.962Z,2
2017-09-09T03:32:32.350Z,2
2017-09-09T03:33:35.103Z,2
2017-09-09T03:34:37.503Z,2
2017-09-09T03:35:39.899Z,1.9
2017-09-09T03:36:42.294Z,2
2017-09-09T03:37:44.689Z,1.9
2017-09-09T03:38:47.076Z,2
2017-09-09T03:39:49.474Z,2
2017-09-09T03:40:51.871Z,2
2017-09-09T03:41:54.262Z,1.9
2017-09-09T03:42:56.663Z,2
2017-09-09T03:43:59.062Z,1.9
2017-09-09T03:45:01.458Z,2
2017-09-09T03:46:03.856Z,2
2017-09-09T03:47:06.251Z,2
2017-09-09T03:48:08.647Z,2
2017-09-09T03:49:11.047Z,2
2017-09-09T03:50:13.431Z,1.9
2017-09-09T03:51:15.826Z,2
2017-09-09T03:52:18.216Z,2.1
2017-09-09T03:53:21.301Z,2
2017-09-09T03:54:23.693Z,2
2017-09-09T03:55:26.087Z,2
2017-09-09T03:56:28.480Z,2.1
2017-09-09T03:57:30.874Z,2
2017-09-09T03:58:33.265Z,2
2017-09-09T03:59:35.664Z,2
2017-09-09T04:00:38.056Z,2
2017-09-09T04:01:40.452Z,2
2017-09-09T04:02:43.184Z,2
2017-09-09T04:03:45.580Z,2
2017-09-09T04:04:47.975Z,1.9
2017-09-09T04:05:50.371Z,2
2017-09-09T04:06:52.769Z,2
2017-09-09T04:07:55.164Z,1.9
2017-09-09T04:08:57.564Z,2
2017-09-09T04:09:59.952Z,2
2017-09-09T04:11:02.354Z,1.8
2017-09-09T04:12:04.753Z,2
2017-09-09T04:13:07.142Z,1.9
2017-09-09T04:14:09.544Z,2
2017-09-09T04:15:11.940Z,2
2017-09-09T04:16:14.337Z,2
2017-09-09T04:17:16.736Z,2
2017-09-09T04:18:19.129Z,2
2017-09-09T04:19:21.522Z,1.9
2017-09-09T04:20:23.918Z,2
2017-09-09T04:21:26.664Z,1.9
2017-09-09T04:22:29.062Z,2
2017-09-09T04:23:31.457Z,2
2017-09-09T04:24:33.847Z,2
2017-09-09T04:25:36.249Z,2
2017-09-09T04:26:38.646Z,2
2017-09-09T04:27:41.384Z,2
2017-09-09T04:28:43.783Z,2
2017-09-09T04:29:46.189Z,2
2017-09-09T04:30:48.947Z,2
2017-09-09T04:31:51.340Z,2
2017-09-09T04:32:53.738Z,2
2017-09-09T04:33:56.151Z,2
2017-09-09T04:34:58.544Z,2
2017-09-09T04:36:00.941Z,2
2017-09-09T04:37:03.338Z,1.9
2017-09-09T04:38:05.744Z,2.1
2017-09-09T04:39:08.148Z,2
2017-09-09T04:40:10.545Z,2
2017-09-09T04:41:12.933Z,2
2017-09-09T04:42:15.334Z,2
2017-09-09T04:43:17.730Z,2
2017-09-09T04:44:20.125Z,2
2017-09-09T04:45:22.523Z,1.8
2017-09-09T04:46:24.917Z,2
2017-09-09T04:47:27.313Z,2
2017-09-09T04:48:29.713Z,2
2017-09-09T04:49:32.104Z,2
2017-09-09T04:50:34.492Z,2
2017-09-09T04:51:36.888Z,2
2017-09-09T04:52:39.284Z,2
2017-09-09T04:53:41.683Z,2.1
2017-09-09T04:54:44.084Z,2
2017-09-09T04:55:46.468Z,1.9
2017-09-09T04:56:48.873Z,2
2017-09-09T04:57:51.269Z,2
2017-09-09T04:58:53.663Z,2
2017-09-09T04:59:56.395Z,2
2017-09-09T05:00:58.783Z,2
2017-09-09T05:02:01.179Z,1.9
2017-09-09T05:03:03.582Z,2
2017-09-09T05:04:05.977Z,2
2017-09-09T05:05:08.733Z,2
2017-09-09T05:06:11.126Z,2
2017-09-09T05:07:13.513Z,2
2017-09-09T05:08:15.917Z,2
2017-09-09T05:09:18.314Z,2
2017-09-09T05:10:20.711Z,2
2017-09-09T05:11:23.111Z,2
2017-09-09T05:12:25.848Z,2
2017-09-09T05:13:28.244Z,2
2017-09-09T05:14:30.644Z,2
2017-09-09T05:15:33.030Z,2
2017-09-09T05:16:35.425Z,2
2017-09-09T05:17:37.820Z,2
2017-09-09T05:18:40.209Z,2
2017-09-09T05:19:42.609Z,2
2017-09-09T05:20:45.001Z,2.1
2017-09-09T05:21:47.396Z,2
2017-09-09T05:22:49.796Z,2
2017-09-09T05:23:52.194Z,2
2017-09-09T05:24:54.591Z,2
2017-09-09T05:25:56.987Z,2
2017-09-09T05:26:59.382Z,2
2017-09-09T05:28:01.776Z,2
2017-09-09T05:29:04.178Z,2
2017-09-09T05:30:06.570Z,2
2017-09-09T05:31:08.965Z,2
2017-09-09T05:32:11.368Z,2
2017-09-09T05:33:13.767Z,2
2017-09-09T05:34:16.163Z,2
2017-09-09T05:35:18.558Z,2
2017-09-09T05:36:20.956Z,2
2017-09-09T05:37:23.351Z,1.9
2017-09-09T05:38:25.746Z,2
2017-09-09T05:39:28.141Z,2
2017-09-09T05:40:30.872Z,2
2017-09-09T05:41:33.615Z,1.9
2017-09-09T05:42:36.018Z,2
2017-09-09T05:43:38.412Z,2
2017-09-09T05:44:40.805Z,2
2017-09-09T05:45:43.202Z,2
2017-09-09T05:46:45.591Z,2
2017-09-09T05:47:47.990Z,2.1
2017-09-09T05:48:50.388Z,1.9
2017-09-09T05:49:52.783Z,2
2017-09-09T05:50:55.181Z,2
2017-09-09T05:51:57.581Z,2
2017-09-09T05:52:59.976Z,2
2017-09-09T05:54:02.372Z,2
2017-09-09T05:55:04.758Z,2.1
2017-09-09T05:56:07.155Z,2
2017-09-09T05:57:09.548Z,2
2017-09-09T05:58:12.284Z,2
2017-09-09T05:59:14.684Z,2
2017-09-09T06:00:17.077Z,2
2017-09-09T06:01:19.474Z,1.9
2017-09-09T06:02:21.873Z,2
2017-09-09T06:03:24.263Z,2.1
2017-09-09T06:04:26.659Z,2
2017-09-09T06:05:29.047Z,2.1
2017-09-09T06:06:31.444Z,2.1
2017-09-09T06:07:33.837Z,2.1
2017-09-09T06:08:36.573Z,2.1
2017-09-09T06:09:38.969Z,2
2017-09-09T06:10:41.367Z,2.1
2017-09-09T06:11:43.762Z,2.1
2017-09-09T06:12:46.155Z,2.1
2017-09-09T06:13:48.543Z,2.1
2017-09-09T06:14:50.943Z,1.9
2017-09-09T06:15:53.340Z,2
2017-09-09T06:16:55.739Z,1.9
2017-09-09T06:17:58.134Z,2.1
2017-09-09T06:19:00.530Z,2
2017-09-09T06:20:02.932Z,2
2017-09-09T06:21:05.673Z,2
2017-09-09T06:22:08.063Z,2.1
2017-09-09T06:23:10.456Z,2.1
2017-09-09T06:24:12.851Z,2.1
2017-09-09T06:25:15.247Z,2
2017-09-09T06:26:17.637Z,1.9
2017-09-09T06:27:20.043Z,2
2017-09-09T06:28:22.438Z,2
2017-09-09T06:29:24.833Z,2
2017-09-09T06:30:27.233Z,2.1
2017-09-09T06:31:29.626Z,2.1
2017-09-09T06:32:32.024Z,2
2017-09-09T06:33:34.418Z,2.1
2017-09-09T06:34:37.152Z,2.1
2017-09-09T06:35:39.547Z,2.1
2017-09-09T06:36:41.952Z,2
2017-09-09T06:37:44.339Z,2.1
2017-09-09T06:38:46.739Z,2.1
2017-09-09T06:39:49.141Z,2.1
2017-09-09T06:40:51.543Z,2.1
2017-09-09T06:41:53.939Z,2
2017-09-09T06:42:56.332Z,2.1
2017-09-09T06:43:58.720Z,2.1
2017-09-09T06:45:01.140Z,2.1
2017-09-09T06:46:03.531Z,2.1
2017-09-09T06:47:05.928Z,2
2017-09-09T06:48:08.324Z,2.1
2017-09-09T06:49:10.717Z,2
2017-09-09T06:50:13.111Z,2
2017-09-09T06:51:15.511Z,2.1
2017-09-09T06:52:17.900Z,2.1
2017-09-09T06:53:20.297Z,2.1
2017-09-09T06:54:22.693Z,2.1
2017-09-09T06:55:25.093Z,2.1
2017-09-09T06:56:27.491Z,2.1
2017-09-09T06:57:29.885Z,2.1
2017-09-09T06:58:32.281Z,2
2017-09-09T06:59:34.672Z,2.1
2017-09-09T07:00:37.085Z,2.1
2017-09-09T07:01:39.467Z,2.1
2017-09-09T07:02:41.865Z,2.1
2017-09-09T07:03:44.258Z,2.1
2017-09-09T07:04:46.998Z,2.1
2017-09-09T07:05:49.398Z,2.1
2017-09-09T07:06:51.795Z,2.1
2017-09-09T07:07:54.197Z,2.1
2017-09-09T07:08:56.590Z,2.1
2017-09-09T07:09:58.982Z,2.1
2017-09-09T07:11:01.383Z,2.1
2017-09-09T07:12:04.128Z,2.1
2017-09-09T07:13:06.519Z,2.1
2017-09-09T07:14:08.918Z,2.1
2017-09-09T07:15:11.312Z,2.1
2017-09-09T07:16:14.059Z,2
2017-09-09T07:17:16.797Z,2.1
2017-09-09T07:18:19.185Z,2.1
2017-09-09T07:19:21.586Z,2
2017-09-09T07:20:23.984Z,2.1
2017-09-09T07:21:26.382Z,2.1
2017-09-09T07:22:28.786Z,2
2017-09-09T07:23:31.180Z,2
2017-09-09T07:24:33.572Z,2.1
2017-09-09T07:25:35.974Z,2.1
2017-09-09T07:26:38.373Z,2
2017-09-09T07:27:40.758Z,2.1
2017-09-09T07:28:43.153Z,2.1
2017-09-09T07:29:45.888Z,2.1
2017-09-09T07:30:48.282Z,2.1
2017-09-09T07:31:50.676Z,2.1
2017-09-09T07:32:53.077Z,2.1
2017-09-09T07:33:55.478Z,2.1
2017-09-09T07:34:57.871Z,2.1
2017-09-09T07:36:00.273Z,2
2017-09-09T07:37:02.672Z,2
2017-09-09T07:38:05.077Z,2.1
2017-09-09T07:39:07.474Z,2.1
2017-09-09T07:40:09.872Z,2.1
2017-09-09T07:41:12.264Z,2
2017-09-09T07:42:14.663Z,2.1
2017-09-09T07:43:17.054Z,2.1
2017-09-09T07:44:19.456Z,2.1
2017-09-09T07:45:21.850Z,1.9
2017-09-09T07:46:24.394Z,2.1
2017-09-09T07:47:26.790Z,2.1
2017-09-09T07:48:29.192Z,2.1
2017-09-09T07:49:31.921Z,2.1
2017-09-09T07:50:34.327Z,2.1
2017-09-09T07:51:36.724Z,2.1
2017-09-09T07:52:39.120Z,2.1
2017-09-09T07:53:41.522Z,2
2017-09-09T07:54:43.918Z,2.1
2017-09-09T07:55:46.646Z,2.1
2017-09-09T07:56:49.046Z,2.1
2017-09-09T07:57:51.435Z,2.1
2017-09-09T07:58:53.839Z,2.1
2017-09-09T07:59:56.231Z,2.1
2017-09-09T08:00:58.624Z,2.1
2017-09-09T08:02:01.022Z,2.1
2017-09-09T08:03:03.423Z,2.1
2017-09-09T08:04:05.822Z,2.1
2017-09-09T08:05:08.217Z,2.1
2017-09-09T08:06:10.608Z,2.1
2017-09-09T08:07:13.002Z,2.1
2017-09-09T08:08:15.402Z,1.9
2017-09-09T08:09:17.796Z,2.1
2017-09-09T08:10:20.534Z,2.1
2017-09-09T08:11:22.927Z,2.1
2017-09-09T08:12:25.323Z,2
2017-09-09T08:13:27.717Z,2.1
2017-09-09T08:14:30.453Z,2.1
2017-09-09T08:15:32.844Z,2.1
2017-09-09T08:16:35.248Z,2.1
2017-09-09T08:17:37.646Z,2.1
2017-09-09T08:18:40.046Z,2.1
2017-09-09T08:19:42.434Z,2.1
2017-09-09T08:20:44.830Z,2.1
2017-09-09T08:21:47.226Z,2.1
2017-09-09T08:22:49.626Z,2.1
2017-09-09T08:23:52.021Z,2.1
2017-09-09T08:24:54.415Z,2.1
2017-09-09T08:25:56.809Z,1.9
2017-09-09T08:26:59.219Z,2.1
2017-09-09T08:28:02.647Z,2.1
2017-09-09T08:29:05.044Z,2.1
2017-09-09T08:30:07.784Z,2.1
2017-09-09T08:31:10.183Z,1.9
2017-09-09T08:32:12.573Z,2.1
2017-09-09T08:33:14.981Z,2
2017-09-09T08:34:17.375Z,2.1
2017-09-09T08:35:19.774Z,2.1
2017-09-09T08:36:22.850Z,2
2017-09-09T08:37:25.240Z,2.1
2017-09-09T08:38:27.631Z,2.1
2017-09-09T08:39:30.031Z,2.1
2017-09-09T08:40:32.425Z,2.1
2017-09-09T08:41:34.820Z,1.9
2017-09-09T08:42:37.221Z,2.1
2017-09-09T08:43:40.285Z,2
2017-09-09T08:44:42.683Z,2.1
2017-09-09T08:45:45.084Z,2
2017-09-09T08:46:47.480Z,2
2017-09-09T08:47:49.881Z,2.1
2017-09-09T08:48:52.280Z,2
2017-09-09T08:49:54.668Z,2
2017-09-09T08:50:57.071Z,2.1
2017-09-09T08:51:59.461Z,2.1
2017-09-09T08:53:01.854Z,1.9
2017-09-09T08:54:04.252Z,1.9
2017-09-09T08:55:06.647Z,2
2017-09-09T08:56:09.048Z,2
2017-09-09T08:57:11.446Z,2
2017-09-09T08:58:13.842Z,1.9
2017-09-09T08:59:16.236Z,1.9
2017-09-09T09:00:18.631Z,2.1
2017-09-09T09:01:21.027Z,2.1
2017-09-09T09:02:23.424Z,1.9
2017-09-09T09:03:26.165Z,1.9
2017-09-09T09:04:28.679Z,2
2017-09-09T09:05:31.077Z,2
2017-09-09T09:06:33.776Z,2
2017-09-09T09:07:36.175Z,2
2017-09-09T09:08:38.568Z,2.1
2017-09-09T09:09:40.966Z,2.1
2017-09-09T09:10:43.702Z,1.9
2017-09-09T09:11:46.098Z,2
2017-09-09T09:12:48.497Z,2
2017-09-09T09:13:50.893Z,2
2017-09-09T09:14:53.306Z,2
2017-09-09T09:15:55.726Z,2.1
2017-09-09T09:16:58.125Z,2
2017-09-09T09:18:00.517Z,2.1
2017-09-09T09:19:03.253Z,2
2017-09-09T09:20:05.648Z,2.1
2017-09-09T09:21:08.041Z,2
2017-09-09T09:22:10.446Z,2
2017-09-09T09:23:12.872Z,2
2017-09-09T09:24:15.263Z,2.1
2017-09-09T09:25:17.672Z,2
2017-09-09T09:26:20.070Z,2
2017-09-09T09:27:22.467Z,2.1
2017-09-09T09:28:24.859Z,2.1
2017-09-09T09:29:27.258Z,2.1
2017-09-09T09:30:29.658Z,2.1
2017-09-09T09:31:32.942Z,2.1
2017-09-09T09:32:35.653Z,2.1
2017-09-09T09:33:38.337Z,2
2017-09-09T09:34:41.861Z,2.1
2017-09-09T09:35:44.258Z,1.9
2017-09-09T09:36:46.653Z,2.1
2017-09-09T09:37:49.826Z,2
2017-09-09T09:38:53.216Z,2
2017-09-09T09:39:56.514Z,2.1
2017-09-09T09:40:59.712Z,2
2017-09-09T09:42:03.110Z,2.1
2017-09-09T09:43:06.629Z,2.1
2017-09-09T09:44:09.038Z,2.1
2017-09-09T09:45:11.769Z,2.1
2017-09-09T09:46:14.160Z,2.1
2017-09-09T09:47:16.550Z,2.1
2017-09-09T09:48:19.287Z,2.1
2017-09-09T09:49:22.019Z,2
2017-09-09T09:50:24.422Z,2.1
2017-09-09T09:51:26.816Z,2.1
2017-09-09T09:52:29.212Z,2
2017-09-09T09:53:31.607Z,2.1
2017-09-09T09:54:34.007Z,1.9
2017-09-09T09:55:36.734Z,2.1
2017-09-09T09:56:39.131Z,2
2017-09-09T09:57:41.528Z,2.1
2017-09-09T09:58:43.919Z,2
2017-09-09T09:59:46.316Z,2.1
2017-09-09T10:00:48.712Z,2
2017-09-09T10:01:51.108Z,1.9
2017-09-09T10:02:53.500Z,2.1
2017-09-09T10:03:55.892Z,2.1
2017-09-09T10:04:58.298Z,2.1
2017-09-09T10:06:00.692Z,2.1
2017-09-09T10:07:03.085Z,2
2017-09-09T10:08:05.481Z,1.9
2017-09-09T10:09:07.879Z,1.9
2017-09-09T10:10:10.273Z,2.1
2017-09-09T10:11:12.676Z,2
2017-09-09T10:12:15.404Z,2
2017-09-09T10:13:17.794Z,1.9
2017-09-09T10:14:20.199Z,2
2017-09-09T10:15:22.593Z,2
2017-09-09T10:16:24.990Z,2.1
2017-09-09T10:17:27.384Z,1.9
2017-09-09T10:18:29.779Z,2
2017-09-09T10:19:32.179Z,2
2017-09-09T10:20:34.579Z,2.1
2017-09-09T10:21:36.971Z,2
2017-09-09T10:22:39.364Z,2
2017-09-09T10:23:41.764Z,2
2017-09-09T10:24:44.150Z,2.1
2017-09-09T10:25:46.546Z,2
2017-09-09T10:26:48.946Z,2
2017-09-09T10:27:51.677Z,2.1
2017-09-09T10:28:54.066Z,1.9
2017-09-09T10:29:56.461Z,2
2017-09-09T10:30:58.854Z,2.1
2017-09-09T10:32:01.244Z,2.1
2017-09-09T10:33:03.637Z,2
2017-09-09T10:34:06.035Z,2.1
2017-09-09T10:35:08.428Z,1.9
2017-09-09T10:36:10.832Z,2
2017-09-09T10:37:13.221Z,2
2017-09-09T10:38:15.618Z,2
2017-09-09T10:39:18.018Z,1.9
2017-09-09T10:40:20.415Z,2
2017-09-09T10:41:22.813Z,2
2017-09-09T10:42:25.212Z,2
2017-09-09T10:43:27.606Z,2
2017-09-09T10:44:30.000Z,2
2017-09-09T10:45:32.397Z,2
2017-09-09T10:46:34.900Z,2
2017-09-09T10:47:37.625Z,2
2017-09-09T10:48:40.028Z,2
2017-09-09T10:49:42.421Z,2
2017-09-09T10:50:44.820Z,2
2017-09-09T10:51:47.213Z,2
2017-09-09T10:52:49.604Z,2.1
2017-09-09T10:53:51.994Z,1.9
2017-09-09T10:54:54.394Z,2
2017-09-09T10:55:56.782Z,2.1
2017-09-09T10:56:59.174Z,1.9
2017-09-09T10:58:01.572Z,1.9
2017-09-09T10:59:03.973Z,2.1
2017-09-09T11:00:06.366Z,2.1
2017-09-09T11:01:08.760Z,1.9
2017-09-09T11:02:11.168Z,2
2017-09-09T11:03:13.559Z,2
2017-09-09T11:04:15.962Z,2.1
2017-09-09T11:05:18.352Z,2.1
2017-09-09T11:06:20.749Z,2
2017-09-09T11:07:23.144Z,2
2017-09-09T11:08:25.881Z,2
2017-09-09T11:09:28.267Z,2.1
2017-09-09T11:10:30.673Z,2.1
2017-09-09T11:11:33.062Z,2.1
2017-09-09T11:12:35.463Z,2
2017-09-09T11:13:37.863Z,1.9
2017-09-09T11:14:40.614Z,2.1
2017-09-09T11:15:43.009Z,2.1
2017-09-09T11:16:45.406Z,2.1
2017-09-09T11:17:47.799Z,2.1
2017-09-09T11:18:50.197Z,2.1
2017-09-09T11:19:52.590Z,2
2017-09-09T11:20:54.984Z,2.1
2017-09-09T11:21:57.377Z,2
2017-09-09T11:22:59.777Z,2
2017-09-09T11:24:02.168Z,2.1
2017-09-09T11:25:04.565Z,2.1
2017-09-09T11:26:06.957Z,2
2017-09-09T11:27:09.358Z,2.1
2017-09-09T11:28:11.747Z,2
2017-09-09T11:29:14.141Z,2
2017-09-09T11:30:16.542Z,2.1
2017-09-09T11:31:18.937Z,2
2017-09-09T11:32:21.670Z,2.1
2017-09-09T11:33:24.064Z,2.1
2017-09-09T11:34:26.456Z,2
2017-09-09T11:35:29.198Z,1.9
2017-09-09T11:36:31.592Z,2.1
2017-09-09T11:37:33.982Z,2
2017-09-09T11:38:36.384Z,2.1
2017-09-09T11:39:38.779Z,2.1
2017-09-09T11:40:41.174Z,2.1
2017-09-09T11:41:43.571Z,2.1
2017-09-09T11:42:45.971Z,2.1
2017-09-09T11:43:48.355Z,2
2017-09-09T11:44:50.761Z,2.1
2017-09-09T11:45:53.158Z,2.1
2017-09-09T11:46:55.550Z,2.1
2017-09-09T11:47:57.946Z,2.1
2017-09-09T11:49:00.336Z,2.1
2017-09-09T11:50:02.728Z,2.2
2017-09-09T11:51:05.126Z,2.1
2017-09-09T11:52:07.519Z,2.1
2017-09-09T11:53:09.918Z,2.1
2017-09-09T11:54:12.323Z,2.1
2017-09-09T11:55:15.412Z,2.1
2017-09-09T11:56:17.816Z,2.1
2017-09-09T11:57:20.219Z,2.1
2017-09-09T11:58:22.951Z,2.1
2017-09-09T11:59:25.342Z,2.2
2017-09-09T12:00:27.734Z,2.2
2017-09-09T12:01:30.137Z,2
2017-09-09T12:02:32.522Z,2.2
2017-09-09T12:03:34.931Z,2.2
2017-09-09T12:04:37.322Z,2.2
2017-09-09T12:05:39.718Z,2.1
2017-09-09T12:06:42.146Z,2.2
2017-09-09T12:07:44.520Z,2.3
2017-09-09T12:08:46.914Z,2.2
2017-09-09T12:09:49.313Z,2.3
2017-09-09T12:10:51.701Z,2.3
2017-09-09T12:11:54.105Z,2.3
2017-09-09T12:12:56.503Z,2.3
2017-09-09T12:13:58.899Z,2.3
2017-09-09T12:15:01.631Z,2.3
2017-09-09T12:16:04.035Z,2.3
2017-09-09T12:17:06.426Z,2.4
2017-09-09T12:18:08.862Z,2.3
2017-09-09T12:19:11.575Z,2.4
2017-09-09T12:20:13.968Z,2.4
2017-09-09T12:21:16.366Z,2.4
2017-09-09T12:22:18.766Z,2.4
2017-09-09T12:23:21.166Z,2.4
2017-09-09T12:24:23.560Z,2.4
2017-09-09T12:25:25.963Z,2.4
2017-09-09T12:26:28.364Z,2.4
2017-09-09T12:27:30.758Z,2.5
2017-09-09T12:28:33.157Z,2.4
2017-09-09T12:29:35.571Z,2.4
2017-09-09T12:30:37.962Z,2.4
2017-09-09T12:31:40.357Z,2.5
2017-09-09T12:32:42.763Z,2.5
2017-09-09T12:33:45.157Z,2.5
2017-09-09T12:34:47.558Z,2.5
2017-09-09T12:35:50.296Z,2.5
2017-09-09T12:36:52.690Z,2.6
2017-09-09T12:37:55.095Z,2.5
2017-09-09T12:38:57.495Z,2.5
2017-09-09T12:39:59.890Z,2.5
2017-09-09T12:41:02.298Z,2.6
2017-09-09T12:42:04.692Z,2.5
2017-09-09T12:43:07.098Z,2.5
2017-09-09T12:44:09.502Z,2.6
2017-09-09T12:45:11.892Z,2.5
2017-09-09T12:46:14.294Z,2.5
2017-09-09T12:47:16.697Z,2.6
2017-09-09T12:48:19.095Z,2.5
2017-09-09T12:49:21.502Z,2.5
2017-09-09T12:50:23.902Z,2.6
2017-09-09T12:51:26.296Z,2.6
2017-09-09T12:52:28.701Z,2.7
2017-09-09T12:53:31.109Z,2.8
2017-09-09T12:54:33.513Z,2.8
2017-09-09T12:55:35.911Z,2.7
2017-09-09T12:56:38.314Z,2.8
2017-09-09T12:57:40.714Z,2.8
2017-09-09T12:58:43.111Z,2.9
2017-09-09T12:59:45.520Z,2.8
2017-09-09T13:00:47.922Z,2.9
2017-09-09T13:01:50.329Z,2.9
2017-09-09T13:02:53.071Z,2.9
2017-09-09T13:03:55.471Z,2.8
2017-09-09T13:04:58.209Z,2.8
2017-09-09T13:06:00.609Z,2.8
2017-09-09T13:07:03.014Z,2.8
2017-09-09T13:08:05.756Z,2.8
2017-09-09T13:09:08.158Z,2.7
2017-09-09T13:10:10.565Z,2.8
2017-09-09T13:11:12.990Z,2.8
2017-09-09T13:12:15.392Z,2.7
2017-09-09T13:13:18.123Z,2.7
2017-09-09T13:14:20.526Z,2.7
2017-09-09T13:15:22.929Z,2.8
2017-09-09T13:16:25.327Z,2.7
2017-09-09T13:17:27.733Z,2.8
2017-09-09T13:18:30.134Z,2.8
2017-09-09T13:19:32.538Z,2.8
2017-09-09T13:20:34.945Z,2.8
2017-09-09T13:21:37.348Z,2.9
2017-09-09T13:22:39.752Z,2.8
2017-09-09T13:23:42.149Z,2.9
2017-09-09T13:24:44.556Z,2.9
2017-09-09T13:25:46.958Z,2.8
2017-09-09T13:26:49.358Z,2.9
2017-09-09T13:27:51.765Z,2.8
2017-09-09T13:28:54.169Z,2.9
2017-09-09T13:29:56.581Z,2.8
2017-09-09T13:30:58.988Z,2.9
2017-09-09T13:32:01.386Z,2.9
2017-09-09T13:33:03.784Z,2.9
2017-09-09T13:34:06.198Z,2.9
2017-09-09T13:35:08.934Z,2.8
2017-09-09T13:36:11.337Z,2.8
2017-09-09T13:37:13.734Z,2.9
2017-09-09T13:38:16.134Z,2.8
2017-09-09T13:39:18.547Z,2.8
2017-09-09T13:40:20.950Z,2.8
2017-09-09T13:41:23.369Z,2.8
2017-09-09T13:42:25.748Z,2.7
2017-09-09T13:43:28.149Z,2.7
2017-09-09T13:44:30.554Z,2.8
2017-09-09T13:45:32.963Z,2.8
2017-09-09T13:46:35.421Z,2.7
2017-09-09T13:47:37.823Z,2.7
2017-09-09T13:48:40.576Z,2.7
2017-09-09T13:49:42.981Z,2.7
2017-09-09T13:50:45.381Z,2.7
2017-09-09T13:51:47.784Z,2.7
2017-09-09T13:52:50.182Z,2.6
2017-09-09T13:53:52.577Z,2.8
2017-09-09T13:54:55.259Z,2.8
2017-09-09T13:55:57.667Z,2.8
2017-09-09T13:57:00.068Z,2.8
2017-09-09T13:58:02.482Z,2.9
2017-09-09T13:59:04.887Z,2.8
2017-09-09T14:00:07.287Z,2.9
2017-09-09T14:01:09.710Z,2.9
2017-09-09T14:02:12.115Z,2.9
2017-09-09T14:03:14.529Z,2.9
2017-09-09T14:04:16.932Z,2.9
2017-09-09T14:05:19.328Z,2.9
2017-09-09T14:06:22.092Z,2.9
2017-09-09T14:07:24.506Z,3
2017-09-09T14:08:26.908Z,3
2017-09-09T14:09:29.311Z,3
2017-09-09T14:10:31.725Z,3
2017-09-09T14:11:34.127Z,3
2017-09-09T14:12:36.535Z,3
2017-09-09T14:13:38.939Z,3.1
2017-09-09T14:14:41.340Z,3.1
2017-09-09T14:15:44.089Z,3.1
2017-09-09T14:16:46.497Z,3.1
2017-09-09T14:17:48.895Z,3.1
2017-09-09T14:18:51.300Z,3
2017-09-09T14:19:53.698Z,3.1
2017-09-09T14:20:56.099Z,3.1
2017-09-09T14:21:58.513Z,3.1
2017-09-09T14:23:00.910Z,3.1
2017-09-09T14:24:03.306Z,3.1
2017-09-09T14:25:05.713Z,3.1
2017-09-09T14:26:08.117Z,3
2017-09-09T14:27:10.518Z,3
2017-09-09T14:28:12.923Z,3
2017-09-09T14:29:15.324Z,3
2017-09-09T14:30:17.726Z,3
2017-09-09T14:31:20.144Z,3
2017-09-09T14:32:22.544Z,2.9
2017-09-09T14:33:25.632Z,2.9
2017-09-09T14:34:28.035Z,2.9
2017-09-09T14:35:30.443Z,2.9
2017-09-09T14:36:32.847Z,3
2017-09-09T14:37:35.249Z,3
2017-09-09T14:38:37.644Z,2.9
2017-09-09T14:39:40.045Z,2.9
2017-09-09T14:40:42.445Z,2.9
2017-09-09T14:41:44.844Z,2.9
2017-09-09T14:42:47.246Z,2.8
2017-09-09T14:43:49.650Z,2.9
2017-09-09T14:44:52.048Z,2.8
2017-09-09T14:45:54.461Z,2.8